sensor_id;sensor_type;location;lat;lon;timestamp;P1;durP1;ratioP1;P2;durP2;ratioP2
9174;SDS011;54374;50.196;8.050;2022-08-19T00:01:11;28.50;;;15.77;;
9174;SDS011;54374;50.196;8.050;2022-08-19T00:03:39;26.30;;;15.20;;
9174;SDS011;54374;50.196;8.050;2022-08-19T00:06:07;25.30;;;16.47;;
9174;SDS011;54374;50.196;8.050;2022-08-19T00:08:34;24.60;;;14.87;;
9174;SDS011;54374;50.196;8.050;2022-08-19T00:11:02;26.50;;;15.90;;
9174;SDS011;54374;50.196;8.050;2022-08-19T00:13:29;28.10;;;16.60;;
9174;SDS011;54374;50.196;8.050;2022-08-19T00:15:56;24.83;;;14.47;;
9174;SDS011;54374;50.196;8.050;2022-08-19T00:18:30;22.43;;;13.63;;
9174;SDS011;54374;50.196;8.050;2022-08-19T00:20:58;22.20;;;14.40;;
9174;SDS011;54374;50.196;8.050;2022-08-19T00:23:27;22.17;;;14.97;;
9174;SDS011;54374;50.196;8.050;2022-08-19T00:25:55;20.07;;;13.07;;
9174;SDS011;54374;50.196;8.050;2022-08-19T00:28:22;20.57;;;13.50;;
9174;SDS011;54374;50.196;8.050;2022-08-19T00:30:49;23.57;;;14.20;;
9174;SDS011;54374;50.196;8.050;2022-08-19T00:33:17;21.80;;;13.03;;
9174;SDS011;54374;50.196;8.050;2022-08-19T00:35:44;24.20;;;13.87;;
9174;SDS011;54374;50.196;8.050;2022-08-19T00:38:11;19.33;;;12.10;;
9174;SDS011;54374;50.196;8.050;2022-08-19T00:40:39;24.00;;;14.07;;
9174;SDS011;54374;50.196;8.050;2022-08-19T00:43:09;21.93;;;14.00;;
9174;SDS011;54374;50.196;8.050;2022-08-19T00:45:38;21.30;;;13.80;;
9174;SDS011;54374;50.196;8.050;2022-08-19T00:48:09;22.37;;;14.53;;
9174;SDS011;54374;50.196;8.050;2022-08-19T00:50:36;24.47;;;15.10;;
9174;SDS011;54374;50.196;8.050;2022-08-19T00:53:08;21.03;;;14.17;;
9174;SDS011;54374;50.196;8.050;2022-08-19T00:55:36;20.17;;;13.40;;
9174;SDS011;54374;50.196;8.050;2022-08-19T00:58:06;22.13;;;13.00;;
9174;SDS011;54374;50.196;8.050;2022-08-19T01:00:36;23.47;;;13.27;;
9174;SDS011;54374;50.196;8.050;2022-08-19T01:03:03;19.03;;;12.47;;
9174;SDS011;54374;50.196;8.050;2022-08-19T01:05:32;19.03;;;12.80;;
9174;SDS011;54374;50.196;8.050;2022-08-19T01:08:02;21.93;;;13.17;;
9174;SDS011;54374;50.196;8.050;2022-08-19T01:10:32;20.93;;;13.20;;
9174;SDS011;54374;50.196;8.050;2022-08-19T01:13:06;17.57;;;12.10;;
9174;SDS011;54374;50.196;8.050;2022-08-19T01:15:35;20.60;;;13.60;;
9174;SDS011;54374;50.196;8.050;2022-08-19T01:18:08;20.37;;;13.07;;
9174;SDS011;54374;50.196;8.050;2022-08-19T01:20:38;21.03;;;13.63;;
9174;SDS011;54374;50.196;8.050;2022-08-19T01:23:09;28.40;;;13.73;;
9174;SDS011;54374;50.196;8.050;2022-08-19T01:25:39;20.27;;;12.60;;
9174;SDS011;54374;50.196;8.050;2022-08-19T01:28:14;22.00;;;12.00;;
9174;SDS011;54374;50.196;8.050;2022-08-19T01:30:43;19.87;;;13.00;;
9174;SDS011;54374;50.196;8.050;2022-08-19T01:33:11;19.80;;;12.60;;
9174;SDS011;54374;50.196;8.050;2022-08-19T01:35:39;23.80;;;13.83;;
9174;SDS011;54374;50.196;8.050;2022-08-19T01:38:07;23.43;;;13.30;;
9174;SDS011;54374;50.196;8.050;2022-08-19T01:40:45;20.70;;;12.60;;
9174;SDS011;54374;50.196;8.050;2022-08-19T01:43:12;18.63;;;11.67;;
9174;SDS011;54374;50.196;8.050;2022-08-19T01:45:39;20.50;;;13.10;;
9174;SDS011;54374;50.196;8.050;2022-08-19T01:48:06;23.23;;;12.37;;
9174;SDS011;54374;50.196;8.050;2022-08-19T01:50:34;20.43;;;12.63;;
9174;SDS011;54374;50.196;8.050;2022-08-19T01:53:02;22.70;;;12.13;;
9174;SDS011;54374;50.196;8.050;2022-08-19T01:55:33;19.50;;;12.20;;
9174;SDS011;54374;50.196;8.050;2022-08-19T01:58:02;26.87;;;13.70;;
9174;SDS011;54374;50.196;8.050;2022-08-19T02:04:42;23.33;;;12.77;;
9174;SDS011;54374;50.196;8.050;2022-08-19T02:07:09;22.07;;;14.60;;
9174;SDS011;54374;50.196;8.050;2022-08-19T02:09:38;21.63;;;12.57;;
9174;SDS011;54374;50.196;8.050;2022-08-19T02:12:07;19.90;;;12.67;;
9174;SDS011;54374;50.196;8.050;2022-08-19T02:14:34;21.17;;;13.13;;
9174;SDS011;54374;50.196;8.050;2022-08-19T02:17:02;21.13;;;12.60;;
9174;SDS011;54374;50.196;8.050;2022-08-19T02:19:29;20.50;;;11.93;;
9174;SDS011;54374;50.196;8.050;2022-08-19T02:21:57;25.00;;;13.80;;
9174;SDS011;54374;50.196;8.050;2022-08-19T02:24:24;23.30;;;12.77;;
9174;SDS011;54374;50.196;8.050;2022-08-19T02:26:52;15.60;;;11.30;;
9174;SDS011;54374;50.196;8.050;2022-08-19T02:29:20;19.53;;;12.20;;
9174;SDS011;54374;50.196;8.050;2022-08-19T02:31:47;18.43;;;11.97;;
9174;SDS011;54374;50.196;8.050;2022-08-19T02:34:14;19.20;;;11.67;;
9174;SDS011;54374;50.196;8.050;2022-08-19T02:36:41;20.30;;;11.97;;
9174;SDS011;54374;50.196;8.050;2022-08-19T02:39:08;19.37;;;13.03;;
9174;SDS011;54374;50.196;8.050;2022-08-19T02:41:36;17.70;;;11.73;;
9174;SDS011;54374;50.196;8.050;2022-08-19T02:44:03;18.90;;;12.53;;
9174;SDS011;54374;50.196;8.050;2022-08-19T02:46:32;18.23;;;11.90;;
9174;SDS011;54374;50.196;8.050;2022-08-19T02:49:00;18.30;;;11.63;;
9174;SDS011;54374;50.196;8.050;2022-08-19T02:51:29;18.23;;;10.87;;
9174;SDS011;54374;50.196;8.050;2022-08-19T02:53:57;17.63;;;11.60;;
9174;SDS011;54374;50.196;8.050;2022-08-19T02:56:25;17.03;;;11.53;;
9174;SDS011;54374;50.196;8.050;2022-08-19T02:58:53;18.57;;;11.23;;
9174;SDS011;54374;50.196;8.050;2022-08-19T03:01:21;18.73;;;12.70;;
9174;SDS011;54374;50.196;8.050;2022-08-19T03:03:51;21.33;;;12.50;;
9174;SDS011;54374;50.196;8.050;2022-08-19T03:06:18;19.40;;;12.10;;
9174;SDS011;54374;50.196;8.050;2022-08-19T03:08:47;19.10;;;11.50;;
9174;SDS011;54374;50.196;8.050;2022-08-19T03:11:16;17.77;;;11.80;;
9174;SDS011;54374;50.196;8.050;2022-08-19T03:13:44;17.60;;;11.83;;
9174;SDS011;54374;50.196;8.050;2022-08-19T03:16:14;16.33;;;11.07;;
9174;SDS011;54374;50.196;8.050;2022-08-19T03:18:42;17.57;;;11.37;;
9174;SDS011;54374;50.196;8.050;2022-08-19T03:21:14;19.90;;;11.97;;
9174;SDS011;54374;50.196;8.050;2022-08-19T03:23:41;23.03;;;11.83;;
9174;SDS011;54374;50.196;8.050;2022-08-19T03:26:08;16.77;;;10.70;;
9174;SDS011;54374;50.196;8.050;2022-08-19T03:28:35;20.00;;;11.70;;
9174;SDS011;54374;50.196;8.050;2022-08-19T03:31:03;17.03;;;11.67;;
9174;SDS011;54374;50.196;8.050;2022-08-19T03:33:32;17.70;;;11.77;;
9174;SDS011;54374;50.196;8.050;2022-08-19T03:36:05;18.20;;;11.23;;
9174;SDS011;54374;50.196;8.050;2022-08-19T03:38:36;19.60;;;12.50;;
9174;SDS011;54374;50.196;8.050;2022-08-19T03:41:08;17.93;;;11.30;;
9174;SDS011;54374;50.196;8.050;2022-08-19T03:43:38;16.17;;;11.10;;
9174;SDS011;54374;50.196;8.050;2022-08-19T03:46:07;18.93;;;12.27;;
9174;SDS011;54374;50.196;8.050;2022-08-19T03:48:36;19.60;;;12.20;;
9174;SDS011;54374;50.196;8.050;2022-08-19T03:51:05;19.03;;;11.93;;
9174;SDS011;54374;50.196;8.050;2022-08-19T03:53:33;20.63;;;12.50;;
9174;SDS011;54374;50.196;8.050;2022-08-19T03:56:02;19.33;;;12.03;;
9174;SDS011;54374;50.196;8.050;2022-08-19T03:58:29;16.53;;;11.50;;
9174;SDS011;54374;50.196;8.050;2022-08-19T04:00:56;18.00;;;12.13;;
9174;SDS011;54374;50.196;8.050;2022-08-19T04:03:24;15.07;;;10.57;;
9174;SDS011;54374;50.196;8.050;2022-08-19T04:05:51;17.77;;;11.20;;
9174;SDS011;54374;50.196;8.050;2022-08-19T04:08:19;18.97;;;11.00;;
9174;SDS011;54374;50.196;8.050;2022-08-19T04:10:49;21.07;;;11.83;;
9174;SDS011;54374;50.196;8.050;2022-08-19T04:13:16;18.63;;;12.07;;
9174;SDS011;54374;50.196;8.050;2022-08-19T04:15:45;18.80;;;12.67;;
9174;SDS011;54374;50.196;8.050;2022-08-19T04:18:12;20.57;;;11.47;;
9174;SDS011;54374;50.196;8.050;2022-08-19T04:20:43;23.00;;;13.30;;
9174;SDS011;54374;50.196;8.050;2022-08-19T04:23:12;18.67;;;11.47;;
9174;SDS011;54374;50.196;8.050;2022-08-19T04:25:40;18.67;;;11.20;;
9174;SDS011;54374;50.196;8.050;2022-08-19T04:28:11;25.87;;;12.67;;
9174;SDS011;54374;50.196;8.050;2022-08-19T04:30:39;18.20;;;11.00;;
9174;SDS011;54374;50.196;8.050;2022-08-19T04:33:07;19.57;;;13.00;;
9174;SDS011;54374;50.196;8.050;2022-08-19T04:35:36;21.30;;;12.13;;
9174;SDS011;54374;50.196;8.050;2022-08-19T04:38:07;19.10;;;13.00;;
9174;SDS011;54374;50.196;8.050;2022-08-19T04:40:39;18.77;;;11.63;;
9174;SDS011;54374;50.196;8.050;2022-08-19T04:43:26;21.97;;;13.70;;
9174;SDS011;54374;50.196;8.050;2022-08-19T04:45:53;20.33;;;12.10;;
9174;SDS011;54374;50.196;8.050;2022-08-19T04:48:21;21.57;;;12.60;;
9174;SDS011;54374;50.196;8.050;2022-08-19T04:50:51;18.90;;;11.87;;
9174;SDS011;54374;50.196;8.050;2022-08-19T04:53:23;18.37;;;11.87;;
9174;SDS011;54374;50.196;8.050;2022-08-19T04:55:53;24.33;;;14.50;;
9174;SDS011;54374;50.196;8.050;2022-08-19T04:58:21;19.23;;;11.90;;
9174;SDS011;54374;50.196;8.050;2022-08-19T05:00:50;23.20;;;12.90;;
9174;SDS011;54374;50.196;8.050;2022-08-19T05:03:17;21.50;;;12.70;;
9174;SDS011;54374;50.196;8.050;2022-08-19T05:05:44;19.73;;;12.77;;
9174;SDS011;54374;50.196;8.050;2022-08-19T05:08:14;20.30;;;11.83;;
9174;SDS011;54374;50.196;8.050;2022-08-19T05:10:44;22.20;;;13.07;;
9174;SDS011;54374;50.196;8.050;2022-08-19T05:13:13;18.67;;;11.13;;
9174;SDS011;54374;50.196;8.050;2022-08-19T05:15:41;18.40;;;11.97;;
9174;SDS011;54374;50.196;8.050;2022-08-19T05:18:10;20.67;;;12.70;;
9174;SDS011;54374;50.196;8.050;2022-08-19T05:21:05;21.40;;;12.13;;
9174;SDS011;54374;50.196;8.050;2022-08-19T05:23:50;19.80;;;12.17;;
9174;SDS011;54374;50.196;8.050;2022-08-19T05:26:17;20.47;;;11.90;;
9174;SDS011;54374;50.196;8.050;2022-08-19T05:28:44;20.73;;;12.07;;
9174;SDS011;54374;50.196;8.050;2022-08-19T05:31:11;22.70;;;12.47;;
9174;SDS011;54374;50.196;8.050;2022-08-19T05:33:40;21.27;;;12.67;;
9174;SDS011;54374;50.196;8.050;2022-08-19T05:36:07;23.73;;;12.37;;
9174;SDS011;54374;50.196;8.050;2022-08-19T05:38:34;21.97;;;12.50;;
9174;SDS011;54374;50.196;8.050;2022-08-19T05:41:05;20.80;;;12.97;;
9174;SDS011;54374;50.196;8.050;2022-08-19T05:43:33;20.60;;;12.20;;
9174;SDS011;54374;50.196;8.050;2022-08-19T05:46:01;19.90;;;12.10;;
9174;SDS011;54374;50.196;8.050;2022-08-19T05:48:29;21.33;;;13.23;;
9174;SDS011;54374;50.196;8.050;2022-08-19T05:50:58;22.47;;;13.77;;
9174;SDS011;54374;50.196;8.050;2022-08-19T05:53:29;19.23;;;12.27;;
9174;SDS011;54374;50.196;8.050;2022-08-19T05:55:56;23.47;;;12.30;;
9174;SDS011;54374;50.196;8.050;2022-08-19T05:58:23;18.90;;;11.47;;
9174;SDS011;54374;50.196;8.050;2022-08-19T06:00:50;22.40;;;12.10;;
9174;SDS011;54374;50.196;8.050;2022-08-19T06:03:19;19.30;;;12.07;;
9174;SDS011;54374;50.196;8.050;2022-08-19T06:05:46;20.63;;;13.60;;
9174;SDS011;54374;50.196;8.050;2022-08-19T06:08:15;19.17;;;13.53;;
9174;SDS011;54374;50.196;8.050;2022-08-19T06:10:43;21.40;;;12.93;;
9174;SDS011;54374;50.196;8.050;2022-08-19T06:13:10;20.40;;;12.70;;
9174;SDS011;54374;50.196;8.050;2022-08-19T06:15:37;21.30;;;12.43;;
9174;SDS011;54374;50.196;8.050;2022-08-19T06:18:06;19.30;;;11.27;;
9174;SDS011;54374;50.196;8.050;2022-08-19T06:20:33;23.50;;;13.50;;
9174;SDS011;54374;50.196;8.050;2022-08-19T06:23:00;21.17;;;12.70;;
9174;SDS011;54374;50.196;8.050;2022-08-19T06:25:29;19.80;;;11.87;;
9174;SDS011;54374;50.196;8.050;2022-08-19T06:27:56;16.40;;;11.47;;
9174;SDS011;54374;50.196;8.050;2022-08-19T06:30:23;18.37;;;12.07;;
9174;SDS011;54374;50.196;8.050;2022-08-19T06:32:50;18.40;;;12.40;;
9174;SDS011;54374;50.196;8.050;2022-08-19T06:35:17;16.03;;;11.30;;
9174;SDS011;54374;50.196;8.050;2022-08-19T06:37:44;23.70;;;14.20;;
9174;SDS011;54374;50.196;8.050;2022-08-19T06:40:12;19.23;;;12.43;;
9174;SDS011;54374;50.196;8.050;2022-08-19T06:42:40;24.07;;;13.10;;
9174;SDS011;54374;50.196;8.050;2022-08-19T06:45:08;22.47;;;12.23;;
9174;SDS011;54374;50.196;8.050;2022-08-19T06:47:35;19.10;;;10.90;;
9174;SDS011;54374;50.196;8.050;2022-08-19T06:50:02;20.07;;;12.57;;
9174;SDS011;54374;50.196;8.050;2022-08-19T06:52:30;19.63;;;12.23;;
9174;SDS011;54374;50.196;8.050;2022-08-19T06:54:58;15.83;;;10.73;;
9174;SDS011;54374;50.196;8.050;2022-08-19T06:57:25;18.93;;;10.73;;
9174;SDS011;54374;50.196;8.050;2022-08-19T06:59:59;17.80;;;10.20;;
9174;SDS011;54374;50.196;8.050;2022-08-19T07:02:28;19.23;;;10.93;;
9174;SDS011;54374;50.196;8.050;2022-08-19T07:04:55;20.87;;;10.57;;
9174;SDS011;54374;50.196;8.050;2022-08-19T07:07:23;16.27;;;9.17;;
9174;SDS011;54374;50.196;8.050;2022-08-19T07:09:51;17.90;;;8.83;;
9174;SDS011;54374;50.196;8.050;2022-08-19T07:12:18;17.63;;;9.90;;
9174;SDS011;54374;50.196;8.050;2022-08-19T07:14:46;17.40;;;10.70;;
9174;SDS011;54374;50.196;8.050;2022-08-19T07:17:16;11.50;;;9.03;;
9174;SDS011;54374;50.196;8.050;2022-08-19T07:19:43;18.37;;;9.80;;
9174;SDS011;54374;50.196;8.050;2022-08-19T07:22:10;13.70;;;8.97;;
9174;SDS011;54374;50.196;8.050;2022-08-19T07:24:37;15.80;;;10.00;;
9174;SDS011;54374;50.196;8.050;2022-08-19T07:27:05;16.10;;;10.40;;
9174;SDS011;54374;50.196;8.050;2022-08-19T07:29:36;16.20;;;9.40;;
9174;SDS011;54374;50.196;8.050;2022-08-19T07:32:03;16.70;;;10.17;;
9174;SDS011;54374;50.196;8.050;2022-08-19T07:34:32;14.60;;;10.10;;
9174;SDS011;54374;50.196;8.050;2022-08-19T07:37:02;14.77;;;10.47;;
9174;SDS011;54374;50.196;8.050;2022-08-19T07:39:30;14.07;;;8.60;;
9174;SDS011;54374;50.196;8.050;2022-08-19T07:42:00;13.33;;;8.67;;
9174;SDS011;54374;50.196;8.050;2022-08-19T07:44:31;16.10;;;9.30;;
9174;SDS011;54374;50.196;8.050;2022-08-19T07:46:59;13.33;;;8.97;;
9174;SDS011;54374;50.196;8.050;2022-08-19T07:49:30;16.00;;;10.27;;
9174;SDS011;54374;50.196;8.050;2022-08-19T07:51:59;12.83;;;8.77;;
9174;SDS011;54374;50.196;8.050;2022-08-19T07:54:28;18.70;;;10.60;;
9174;SDS011;54374;50.196;8.050;2022-08-19T07:56:57;18.30;;;10.80;;
9174;SDS011;54374;50.196;8.050;2022-08-19T07:59:24;16.37;;;9.70;;
9174;SDS011;54374;50.196;8.050;2022-08-19T08:01:53;22.60;;;12.30;;
9174;SDS011;54374;50.196;8.050;2022-08-19T08:04:21;16.40;;;10.73;;
9174;SDS011;54374;50.196;8.050;2022-08-19T08:07:16;12.63;;;9.30;;
9174;SDS011;54374;50.196;8.050;2022-08-19T08:10:03;17.07;;;11.10;;
9174;SDS011;54374;50.196;8.050;2022-08-19T08:12:44;17.97;;;11.17;;
9174;SDS011;54374;50.196;8.050;2022-08-19T08:15:14;19.43;;;11.47;;
9174;SDS011;54374;50.196;8.050;2022-08-19T08:17:44;23.20;;;10.93;;
9174;SDS011;54374;50.196;8.050;2022-08-19T08:20:13;19.83;;;12.23;;
9174;SDS011;54374;50.196;8.050;2022-08-19T08:22:43;24.90;;;15.70;;
9174;SDS011;54374;50.196;8.050;2022-08-19T08:25:29;26.20;;;15.50;;
9174;SDS011;54374;50.196;8.050;2022-08-19T08:27:56;35.60;;;16.67;;
9174;SDS011;54374;50.196;8.050;2022-08-19T08:30:29;26.47;;;15.77;;
9174;SDS011;54374;50.196;8.050;2022-08-19T08:32:57;28.57;;;17.27;;
9174;SDS011;54374;50.196;8.050;2022-08-19T08:35:25;29.03;;;17.37;;
9174;SDS011;54374;50.196;8.050;2022-08-19T08:37:53;24.90;;;15.23;;
9174;SDS011;54374;50.196;8.050;2022-08-19T08:40:22;23.93;;;16.20;;
9174;SDS011;54374;50.196;8.050;2022-08-19T08:42:55;26.00;;;15.90;;
9174;SDS011;54374;50.196;8.050;2022-08-19T08:45:30;31.40;;;19.07;;
9174;SDS011;54374;50.196;8.050;2022-08-19T08:48:00;30.33;;;17.90;;
9174;SDS011;54374;50.196;8.050;2022-08-19T08:50:35;33.07;;;18.27;;
9174;SDS011;54374;50.196;8.050;2022-08-19T08:53:16;28.33;;;17.80;;
9174;SDS011;54374;50.196;8.050;2022-08-19T08:55:44;27.57;;;16.90;;
9174;SDS011;54374;50.196;8.050;2022-08-19T08:58:13;25.33;;;14.80;;
9174;SDS011;54374;50.196;8.050;2022-08-19T09:00:48;24.30;;;15.40;;
9174;SDS011;54374;50.196;8.050;2022-08-19T09:03:17;27.93;;;16.30;;
9174;SDS011;54374;50.196;8.050;2022-08-19T09:05:47;27.17;;;16.20;;
9174;SDS011;54374;50.196;8.050;2022-08-19T09:08:29;24.83;;;15.23;;
9174;SDS011;54374;50.196;8.050;2022-08-19T09:11:06;28.20;;;16.07;;
9174;SDS011;54374;50.196;8.050;2022-08-19T09:13:37;22.57;;;14.27;;
9174;SDS011;54374;50.196;8.050;2022-08-19T09:16:12;21.87;;;13.40;;
9174;SDS011;54374;50.196;8.050;2022-08-19T09:18:44;25.00;;;15.67;;
9174;SDS011;54374;50.196;8.050;2022-08-19T09:21:14;27.87;;;16.10;;
9174;SDS011;54374;50.196;8.050;2022-08-19T09:23:43;25.60;;;15.77;;
9174;SDS011;54374;50.196;8.050;2022-08-19T09:26:10;23.27;;;14.13;;
9174;SDS011;54374;50.196;8.050;2022-08-19T09:28:40;23.33;;;14.60;;
9174;SDS011;54374;50.196;8.050;2022-08-19T09:31:09;22.93;;;14.57;;
9174;SDS011;54374;50.196;8.050;2022-08-19T09:33:36;23.47;;;15.73;;
9174;SDS011;54374;50.196;8.050;2022-08-19T09:36:04;20.10;;;12.73;;
9174;SDS011;54374;50.196;8.050;2022-08-19T09:38:32;18.53;;;12.00;;
9174;SDS011;54374;50.196;8.050;2022-08-19T09:41:05;17.00;;;11.30;;
9174;SDS011;54374;50.196;8.050;2022-08-19T09:43:33;17.73;;;11.33;;
9174;SDS011;54374;50.196;8.050;2022-08-19T09:46:01;15.60;;;11.30;;
9174;SDS011;54374;50.196;8.050;2022-08-19T09:48:30;15.50;;;10.73;;
9174;SDS011;54374;50.196;8.050;2022-08-19T09:51:02;13.73;;;9.70;;
9174;SDS011;54374;50.196;8.050;2022-08-19T09:53:30;15.47;;;10.40;;
9174;SDS011;54374;50.196;8.050;2022-08-19T09:55:57;13.80;;;10.37;;
9174;SDS011;54374;50.196;8.050;2022-08-19T09:58:25;18.67;;;12.73;;
9174;SDS011;54374;50.196;8.050;2022-08-19T10:00:54;15.20;;;11.13;;
9174;SDS011;54374;50.196;8.050;2022-08-19T10:03:22;13.70;;;10.20;;
9174;SDS011;54374;50.196;8.050;2022-08-19T10:05:49;11.80;;;8.70;;
9174;SDS011;54374;50.196;8.050;2022-08-19T10:08:17;13.50;;;9.90;;
9174;SDS011;54374;50.196;8.050;2022-08-19T10:10:45;11.93;;;9.23;;
9174;SDS011;54374;50.196;8.050;2022-08-19T10:13:13;9.50;;;7.30;;
9174;SDS011;54374;50.196;8.050;2022-08-19T10:15:43;14.83;;;9.00;;
9174;SDS011;54374;50.196;8.050;2022-08-19T10:18:11;8.87;;;7.37;;
9174;SDS011;54374;50.196;8.050;2022-08-19T10:20:38;10.70;;;7.60;;
9174;SDS011;54374;50.196;8.050;2022-08-19T10:23:06;11.53;;;9.10;;
9174;SDS011;54374;50.196;8.050;2022-08-19T10:25:36;9.50;;;7.87;;
9174;SDS011;54374;50.196;8.050;2022-08-19T10:28:03;12.27;;;8.73;;
9174;SDS011;54374;50.196;8.050;2022-08-19T10:30:31;11.70;;;8.30;;
9174;SDS011;54374;50.196;8.050;2022-08-19T10:33:00;20.03;;;10.90;;
9174;SDS011;54374;50.196;8.050;2022-08-19T10:35:26;12.70;;;9.63;;
9174;SDS011;54374;50.196;8.050;2022-08-19T10:37:54;11.97;;;8.37;;
9174;SDS011;54374;50.196;8.050;2022-08-19T10:40:24;11.97;;;9.20;;
9174;SDS011;54374;50.196;8.050;2022-08-19T10:42:51;12.37;;;8.53;;
9174;SDS011;54374;50.196;8.050;2022-08-19T10:45:18;10.77;;;8.73;;
9174;SDS011;54374;50.196;8.050;2022-08-19T10:47:47;9.10;;;8.20;;
9174;SDS011;54374;50.196;8.050;2022-08-19T10:50:15;9.63;;;8.20;;
9174;SDS011;54374;50.196;8.050;2022-08-19T10:53:02;9.80;;;7.73;;
9174;SDS011;54374;50.196;8.050;2022-08-19T10:55:30;9.73;;;8.23;;
9174;SDS011;54374;50.196;8.050;2022-08-19T10:58:16;10.73;;;7.90;;
9174;SDS011;54374;50.196;8.050;2022-08-19T11:00:53;9.53;;;8.17;;
9174;SDS011;54374;50.196;8.050;2022-08-19T11:03:22;11.67;;;8.30;;
9174;SDS011;54374;50.196;8.050;2022-08-19T11:05:58;10.50;;;9.00;;
9174;SDS011;54374;50.196;8.050;2022-08-19T11:08:27;10.60;;;9.00;;
9174;SDS011;54374;50.196;8.050;2022-08-19T11:10:57;13.63;;;9.40;;
9174;SDS011;54374;50.196;8.050;2022-08-19T11:13:26;11.30;;;7.90;;
9174;SDS011;54374;50.196;8.050;2022-08-19T11:15:57;11.67;;;8.80;;
9174;SDS011;54374;50.196;8.050;2022-08-19T11:18:26;10.13;;;8.80;;
9174;SDS011;54374;50.196;8.050;2022-08-19T11:20:54;12.30;;;8.03;;
9174;SDS011;54374;50.196;8.050;2022-08-19T11:23:22;11.60;;;8.80;;
9174;SDS011;54374;50.196;8.050;2022-08-19T11:25:49;10.10;;;8.50;;
9174;SDS011;54374;50.196;8.050;2022-08-19T11:28:16;10.87;;;8.60;;
9174;SDS011;54374;50.196;8.050;2022-08-19T11:30:43;11.63;;;9.13;;
9174;SDS011;54374;50.196;8.050;2022-08-19T11:33:10;12.73;;;7.70;;
9174;SDS011;54374;50.196;8.050;2022-08-19T11:35:38;9.93;;;8.10;;
9174;SDS011;54374;50.196;8.050;2022-08-19T11:38:06;8.33;;;7.53;;
9174;SDS011;54374;50.196;8.050;2022-08-19T11:40:34;14.90;;;7.73;;
9174;SDS011;54374;50.196;8.050;2022-08-19T11:43:01;10.67;;;7.80;;
9174;SDS011;54374;50.196;8.050;2022-08-19T11:45:28;9.60;;;7.40;;
9174;SDS011;54374;50.196;8.050;2022-08-19T11:47:56;11.60;;;8.37;;
9174;SDS011;54374;50.196;8.050;2022-08-19T11:50:23;11.57;;;7.87;;
9174;SDS011;54374;50.196;8.050;2022-08-19T11:52:52;11.33;;;7.40;;
9174;SDS011;54374;50.196;8.050;2022-08-19T11:55:20;8.27;;;7.47;;
9174;SDS011;54374;50.196;8.050;2022-08-19T11:57:51;7.30;;;6.20;;
9174;SDS011;54374;50.196;8.050;2022-08-19T12:00:19;7.27;;;6.53;;
9174;SDS011;54374;50.196;8.050;2022-08-19T12:02:46;9.13;;;6.30;;
9174;SDS011;54374;50.196;8.050;2022-08-19T12:05:13;8.83;;;6.87;;
9174;SDS011;54374;50.196;8.050;2022-08-19T12:07:40;7.40;;;6.60;;
9174;SDS011;54374;50.196;8.050;2022-08-19T12:10:08;7.67;;;6.60;;
9174;SDS011;54374;50.196;8.050;2022-08-19T12:12:36;7.43;;;6.23;;
9174;SDS011;54374;50.196;8.050;2022-08-19T12:15:09;7.00;;;6.30;;
9174;SDS011;54374;50.196;8.050;2022-08-19T12:17:37;10.40;;;6.70;;
9174;SDS011;54374;50.196;8.050;2022-08-19T12:20:05;9.73;;;5.87;;
9174;SDS011;54374;50.196;8.050;2022-08-19T12:22:34;6.73;;;5.23;;
9174;SDS011;54374;50.196;8.050;2022-08-19T12:25:02;5.83;;;5.33;;
9174;SDS011;54374;50.196;8.050;2022-08-19T12:27:29;7.37;;;6.57;;
9174;SDS011;54374;50.196;8.050;2022-08-19T12:29:56;11.00;;;6.37;;
9174;SDS011;54374;50.196;8.050;2022-08-19T12:32:28;9.47;;;6.90;;
9174;SDS011;54374;50.196;8.050;2022-08-19T12:34:55;8.23;;;6.40;;
9174;SDS011;54374;50.196;8.050;2022-08-19T12:37:22;6.97;;;6.27;;
9174;SDS011;54374;50.196;8.050;2022-08-19T12:39:49;7.90;;;6.57;;
9174;SDS011;54374;50.196;8.050;2022-08-19T12:42:16;8.67;;;6.87;;
9174;SDS011;54374;50.196;8.050;2022-08-19T12:44:44;9.40;;;7.57;;
9174;SDS011;54374;50.196;8.050;2022-08-19T12:47:11;11.70;;;8.27;;
9174;SDS011;54374;50.196;8.050;2022-08-19T12:49:41;11.67;;;8.77;;
9174;SDS011;54374;50.196;8.050;2022-08-19T12:52:09;8.70;;;7.73;;
9174;SDS011;54374;50.196;8.050;2022-08-19T12:54:40;10.93;;;8.17;;
9174;SDS011;54374;50.196;8.050;2022-08-19T12:57:08;9.57;;;7.30;;
9174;SDS011;54374;50.196;8.050;2022-08-19T12:59:37;10.67;;;8.40;;
9174;SDS011;54374;50.196;8.050;2022-08-19T13:02:04;11.43;;;8.47;;
9174;SDS011;54374;50.196;8.050;2022-08-19T13:04:33;11.00;;;8.83;;
9174;SDS011;54374;50.196;8.050;2022-08-19T13:07:03;11.60;;;10.17;;
9174;SDS011;54374;50.196;8.050;2022-08-19T13:09:30;10.30;;;8.57;;
9174;SDS011;54374;50.196;8.050;2022-08-19T13:11:57;11.00;;;8.67;;
9174;SDS011;54374;50.196;8.050;2022-08-19T13:14:28;13.83;;;8.73;;
9174;SDS011;54374;50.196;8.050;2022-08-19T13:16:57;11.73;;;7.57;;
9174;SDS011;54374;50.196;8.050;2022-08-19T13:19:24;8.67;;;7.87;;
9174;SDS011;54374;50.196;8.050;2022-08-19T13:21:51;8.80;;;7.67;;
9174;SDS011;54374;50.196;8.050;2022-08-19T13:24:22;9.27;;;7.90;;
9174;SDS011;54374;50.196;8.050;2022-08-19T13:26:49;11.40;;;8.17;;
9174;SDS011;54374;50.196;8.050;2022-08-19T13:29:16;7.80;;;7.00;;
9174;SDS011;54374;50.196;8.050;2022-08-19T13:32:01;10.40;;;7.70;;
9174;SDS011;54374;50.196;8.050;2022-08-19T13:34:46;9.30;;;7.93;;
9174;SDS011;54374;50.196;8.050;2022-08-19T13:37:13;9.77;;;8.40;;
9174;SDS011;54374;50.196;8.050;2022-08-19T13:39:41;8.47;;;6.60;;
9174;SDS011;54374;50.196;8.050;2022-08-19T13:42:10;7.90;;;6.67;;
9174;SDS011;54374;50.196;8.050;2022-08-19T13:44:38;7.97;;;7.10;;
9174;SDS011;54374;50.196;8.050;2022-08-19T13:47:05;8.00;;;5.87;;
9174;SDS011;54374;50.196;8.050;2022-08-19T13:49:33;12.80;;;6.13;;
9174;SDS011;54374;50.196;8.050;2022-08-19T13:52:01;9.20;;;6.17;;
9174;SDS011;54374;50.196;8.050;2022-08-19T13:54:29;7.03;;;6.33;;
9174;SDS011;54374;50.196;8.050;2022-08-19T13:56:57;8.70;;;5.90;;
9174;SDS011;54374;50.196;8.050;2022-08-19T13:59:24;10.03;;;6.40;;
9174;SDS011;54374;50.196;8.050;2022-08-19T14:01:51;7.00;;;6.17;;
9174;SDS011;54374;50.196;8.050;2022-08-19T14:04:18;8.00;;;6.40;;
9174;SDS011;54374;50.196;8.050;2022-08-19T14:06:45;6.90;;;6.03;;
9174;SDS011;54374;50.196;8.050;2022-08-19T14:09:12;8.00;;;6.67;;
9174;SDS011;54374;50.196;8.050;2022-08-19T14:11:39;7.57;;;6.20;;
9174;SDS011;54374;50.196;8.050;2022-08-19T14:14:07;10.13;;;6.17;;
9174;SDS011;54374;50.196;8.050;2022-08-19T14:16:34;7.83;;;6.50;;
9174;SDS011;54374;50.196;8.050;2022-08-19T14:19:01;9.00;;;6.63;;
9174;SDS011;54374;50.196;8.050;2022-08-19T14:21:29;7.07;;;6.37;;
9174;SDS011;54374;50.196;8.050;2022-08-19T14:23:55;10.87;;;6.97;;
9174;SDS011;54374;50.196;8.050;2022-08-19T14:26:23;8.23;;;7.23;;
9174;SDS011;54374;50.196;8.050;2022-08-19T14:28:50;6.80;;;6.13;;
9174;SDS011;54374;50.196;8.050;2022-08-19T14:31:19;6.33;;;5.73;;
9174;SDS011;54374;50.196;8.050;2022-08-19T14:33:49;8.23;;;6.57;;
9174;SDS011;54374;50.196;8.050;2022-08-19T14:36:16;7.83;;;6.43;;
9174;SDS011;54374;50.196;8.050;2022-08-19T14:38:44;7.73;;;6.40;;
9174;SDS011;54374;50.196;8.050;2022-08-19T14:41:13;8.93;;;6.93;;
9174;SDS011;54374;50.196;8.050;2022-08-19T14:43:42;9.07;;;7.10;;
9174;SDS011;54374;50.196;8.050;2022-08-19T14:46:11;9.50;;;6.90;;
9174;SDS011;54374;50.196;8.050;2022-08-19T14:48:41;7.47;;;6.53;;
9174;SDS011;54374;50.196;8.050;2022-08-19T14:51:08;11.53;;;6.73;;
9174;SDS011;54374;50.196;8.050;2022-08-19T14:53:35;10.17;;;7.50;;
9174;SDS011;54374;50.196;8.050;2022-08-19T14:56:06;10.77;;;6.13;;